createdAt,value
2016-12-26T00:00:04.990Z,20.1
2016-12-26T00:02:04.686Z,20.1
2016-12-26T00:04:05.485Z,20.1
2016-12-26T00:06:05.242Z,20.1
2016-12-26T00:08:10.342Z,20.1
2016-12-26T00:10:04.760Z,20.1
2016-12-26T00:12:05.490Z,20.1
2016-12-26T00:14:05.622Z,20.1
2016-12-26T00:16:05.359Z,20.1
2016-12-26T00:18:07.797Z,20.1
2016-12-26T00:20:05.527Z,20.1
2016-12-26T00:22:05.225Z,20.1
2016-12-26T00:24:05.408Z,20.1
2016-12-26T00:26:10.175Z,20.1
2016-12-26T00:28:04.928Z,20.1
2016-12-26T00:30:04.639Z,20.1
2016-12-26T00:32:05.690Z,20.1
2016-12-26T00:34:05.621Z,20.1
2016-12-26T00:36:05.344Z,20.1
2016-12-26T00:38:10.135Z,20.1
2016-12-26T00:40:07.872Z,20.1
2016-12-26T00:42:05.647Z,20.1
2016-12-26T00:44:05.504Z,20.1
2016-12-26T00:46:05.233Z,20.1
2016-12-26T00:48:04.954Z,20.1
2016-12-26T00:50:07.359Z,20.1
2016-12-26T00:52:10.202Z,20
2016-12-26T00:54:04.941Z,20.1
2016-12-26T00:56:07.593Z,20.1
2016-12-26T00:58:12.974Z,20.1
2016-12-26T01:00:04.734Z,20
2016-12-26T01:02:05.151Z,20.1
2016-12-26T01:04:04.878Z,20
2016-12-26T01:06:05.619Z,20.1
2016-12-26T01:08:07.983Z,20
2016-12-26T01:10:04.719Z,20
2016-12-26T01:12:07.557Z,20
2016-12-26T01:14:05.283Z,20
2016-12-26T01:16:04.962Z,20
2016-12-26T01:18:04.871Z,20
2016-12-26T01:20:08.618Z,20
2016-12-26T01:22:05.336Z,20
2016-12-26T01:24:05.066Z,20
2016-12-26T01:26:05.149Z,20
2016-12-26T01:28:05.025Z,20
2016-12-26T01:30:04.800Z,20
2016-12-26T01:32:05.921Z,20
2016-12-26T01:34:04.710Z,20
2016-12-26T01:36:04.946Z,20
2016-12-26T01:38:07.387Z,20
2016-12-26T01:40:07.608Z,19.9
2016-12-26T01:42:05.345Z,20
2016-12-26T01:44:05.374Z,20
2016-12-26T01:46:05.144Z,20
2016-12-26T01:48:07.414Z,19.9
2016-12-26T01:50:08.013Z,19.9
2016-12-26T01:52:09.740Z,19.9
2016-12-26T01:54:05.480Z,19.9
2016-12-26T01:56:05.225Z,20
2016-12-26T01:58:04.926Z,20
2016-12-26T02:00:12.393Z,20
2016-12-26T02:02:05.459Z,19.9
2016-12-26T02:04:05.210Z,20
2016-12-26T02:06:04.917Z,19.9
2016-12-26T02:08:07.501Z,19.9
2016-12-26T02:10:07.672Z,19.9
2016-12-26T02:12:07.891Z,19.9
2016-12-26T02:14:05.926Z,19.9
2016-12-26T02:16:04.661Z,19.9
2016-12-26T02:18:05.555Z,19.9
2016-12-26T02:20:05.421Z,19.9
2016-12-26T02:22:05.138Z,19.9
2016-12-26T02:24:04.856Z,19.9
2016-12-26T02:26:08.278Z,19.9
2016-12-26T02:28:05.072Z,19.9
2016-12-26T02:30:04.789Z,19.9
2016-12-26T02:32:08.846Z,19.9
2016-12-26T02:34:05.565Z,19.9
2016-12-26T02:36:09.839Z,19.9
2016-12-26T02:38:05.901Z,19.9
2016-12-26T02:40:05.628Z,19.9
2016-12-26T02:42:04.870Z,19.9
2016-12-26T02:44:08.135Z,19.9
2016-12-26T02:46:04.848Z,19.8
2016-12-26T02:48:05.932Z,19.9
2016-12-26T02:50:05.941Z,19.8
2016-12-26T02:52:05.196Z,19.8
2016-12-26T02:54:09.965Z,19.9
2016-12-26T02:56:04.685Z,19.8
2016-12-26T02:58:05.404Z,19.9
2016-12-26T03:00:12.670Z,19.9
2016-12-26T03:02:05.374Z,19.9
2016-12-26T03:04:05.925Z,19.8
2016-12-26T03:06:07.192Z,19.9
2016-12-26T03:08:05.251Z,19.8
2016-12-26T03:10:07.995Z,19.8
2016-12-26T03:12:04.754Z,19.8
2016-12-26T03:14:05.689Z,19.8
2016-12-26T03:16:05.376Z,19.8
2016-12-26T03:18:05.264Z,19.9
2016-12-26T03:20:05.107Z,19.9
2016-12-26T03:22:04.850Z,19.8
2016-12-26T03:24:08.055Z,19.8
2016-12-26T03:26:05.108Z,19.8
2016-12-26T03:28:04.789Z,19.8
2016-12-26T03:30:05.499Z,19.8
2016-12-26T03:32:05.533Z,19.8
2016-12-26T03:34:05.188Z,19.8
2016-12-26T03:36:04.902Z,19.8
2016-12-26T03:38:10.368Z,19.8
2016-12-26T03:40:05.049Z,19.8
2016-12-26T03:42:04.762Z,19.8
2016-12-26T03:44:07.979Z,19.8
2016-12-26T03:46:04.714Z,19.8
2016-12-26T03:48:05.413Z,19.8
2016-12-26T03:50:07.647Z,19.8
2016-12-26T03:52:04.895Z,19.8
2016-12-26T03:54:07.698Z,19.8
2016-12-26T03:56:05.748Z,19.8
2016-12-26T03:58:04.955Z,19.8
2016-12-26T04:00:09.780Z,19.8
2016-12-26T04:02:05.237Z,19.8
2016-12-26T04:04:07.491Z,19.8
2016-12-26T04:06:05.210Z,19.8
2016-12-26T04:08:05.287Z,19.8
2016-12-26T04:10:05.579Z,19.8
2016-12-26T04:12:07.819Z,19.8
2016-12-26T04:14:05.749Z,19.8
2016-12-26T04:16:07.994Z,19.8
2016-12-26T04:18:04.944Z,19.8
2016-12-26T04:20:04.965Z,19.8
2016-12-26T04:22:07.203Z,19.8
2016-12-26T04:24:07.542Z,19.8
2016-12-26T04:26:05.249Z,19.8
2016-12-26T04:28:04.971Z,19.8
2016-12-26T04:30:04.630Z,19.8
2016-12-26T04:32:10.352Z,19.9
2016-12-26T04:34:05.046Z,19.8
2016-12-26T04:36:04.784Z,19.9
2016-12-26T04:38:05.813Z,19.9
2016-12-26T04:40:05.516Z,19.8
2016-12-26T04:42:04.741Z,19.9
2016-12-26T04:44:05.519Z,19.9
2016-12-26T04:46:04.792Z,19.9
2016-12-26T04:48:05.491Z,19.9
2016-12-26T04:50:05.372Z,19.9
2016-12-26T04:52:05.590Z,19.9
2016-12-26T04:54:05.296Z,19.9
2016-12-26T04:56:05.738Z,19.9
2016-12-26T04:58:07.483Z,19.9
2016-12-26T05:00:05.208Z,19.9
2016-12-26T05:02:05.307Z,19.9
2016-12-26T05:04:05.007Z,19.9
2016-12-26T05:06:04.681Z,19.9
2016-12-26T05:08:08.044Z,19.9
2016-12-26T05:10:07.278Z,19.9
2016-12-26T05:12:04.990Z,19.9
2016-12-26T05:14:05.116Z,19.9
2016-12-26T05:16:05.319Z,19.9
2016-12-26T05:18:07.754Z,19.9
2016-12-26T05:20:05.581Z,19.9
2016-12-26T05:22:07.896Z,19.9
2016-12-26T05:24:05.164Z,19.9
2016-12-26T05:26:10.357Z,19.9
2016-12-26T05:28:05.252Z,19.9
2016-12-26T05:30:05.033Z,19.9
2016-12-26T05:32:05.096Z,19.9
2016-12-26T05:34:04.750Z,19.9
2016-12-26T05:36:05.516Z,19.9
2016-12-26T05:38:05.268Z,19.9
2016-12-26T05:40:05.001Z,19.9
2016-12-26T05:42:04.725Z,19.9
2016-12-26T05:44:05.610Z,19.9
2016-12-26T05:46:07.417Z,19.9
2016-12-26T05:48:05.082Z,19.9
2016-12-26T05:50:04.744Z,19.9
2016-12-26T05:52:05.425Z,19.9
2016-12-26T05:54:04.747Z,19.9
2016-12-26T05:56:05.767Z,19.9
2016-12-26T05:58:05.473Z,19.9
2016-12-26T06:00:05.049Z,19.9
2016-12-26T06:02:07.269Z,19.9
2016-12-26T06:04:07.493Z,19.9
2016-12-26T06:06:04.748Z,19.9
2016-12-26T06:08:05.577Z,19.9
2016-12-26T06:10:05.302Z,19.9
2016-12-26T06:12:10.136Z,19.9
2016-12-26T06:14:05.061Z,19.9
2016-12-26T06:16:07.704Z,19.9
2016-12-26T06:18:05.582Z,19.9
2016-12-26T06:20:07.935Z,19.9
2016-12-26T06:22:04.672Z,19.9
2016-12-26T06:24:10.447Z,19.9
2016-12-26T06:26:04.805Z,19.9
2016-12-26T06:28:05.576Z,19.9
2016-12-26T06:30:05.286Z,19.9
2016-12-26T06:32:05.028Z,19.9
2016-12-26T06:34:07.224Z,19.9
2016-12-26T06:36:04.931Z,19.9
2016-12-26T06:38:04.979Z,19.9
2016-12-26T06:40:05.188Z,19.9
2016-12-26T06:42:07.456Z,19.9
2016-12-26T06:44:07.796Z,19.9
2016-12-26T06:46:05.596Z,19.9
2016-12-26T06:48:05.465Z,19.9
2016-12-26T06:50:05.280Z,19.9
2016-12-26T06:52:04.996Z,19.9
2016-12-26T06:54:04.701Z,19.9
2016-12-26T06:56:08.297Z,19.9
2016-12-26T06:58:05.109Z,19.9
2016-12-26T07:00:05.333Z,19.9
2016-12-26T07:02:10.491Z,19.9
2016-12-26T07:04:05.541Z,19.9
2016-12-26T07:06:05.274Z,19.9
2016-12-26T07:08:08.238Z,19.9
2016-12-26T07:10:09.979Z,19.9
2016-12-26T07:12:04.756Z,19.9
2016-12-26T07:14:05.917Z,19.9
2016-12-26T07:16:05.219Z,19.9
2016-12-26T07:18:05.129Z,19.9
2016-12-26T07:20:08.363Z,19.9
2016-12-26T07:22:05.576Z,19.9
2016-12-26T07:24:05.285Z,19.9
2016-12-26T07:26:07.927Z,19.9
2016-12-26T07:28:04.721Z,19.9
2016-12-26T07:30:07.935Z,19.9
2016-12-26T07:32:04.680Z,19.9
2016-12-26T07:34:05.358Z,19.9
2016-12-26T07:36:05.185Z,19.9
2016-12-26T07:38:05.596Z,19.9
2016-12-26T07:40:10.507Z,19.9
2016-12-26T07:42:05.178Z,19.9
2016-12-26T07:44:08.258Z,19.9
2016-12-26T07:46:04.950Z,19.9
2016-12-26T07:48:04.656Z,19.9
2016-12-26T07:50:05.589Z,19.9
2016-12-26T07:52:05.877Z,19.9
2016-12-26T07:54:05.795Z,19.9
2016-12-26T07:56:05.881Z,19.9
2016-12-26T07:58:07.774Z,19.9
2016-12-26T08:00:07.992Z,19.9
2016-12-26T08:02:07.396Z,19.9
2016-12-26T08:04:05.073Z,19.9
2016-12-26T08:06:04.829Z,19.9
2016-12-26T08:08:05.731Z,19.9
2016-12-26T08:10:05.462Z,19.9
2016-12-26T08:12:07.768Z,19.9
2016-12-26T08:14:06.244Z,19.9
2016-12-26T08:16:07.516Z,19.9
2016-12-26T08:18:07.943Z,19.9
2016-12-26T08:20:04.863Z,19.9
2016-12-26T08:22:08.143Z,19.9
2016-12-26T08:24:07.495Z,19.9
2016-12-26T08:26:05.552Z,19.9
2016-12-26T08:28:05.293Z,19.9
2016-12-26T08:30:05.011Z,19.9
2016-12-26T08:32:04.856Z,19.9
2016-12-26T08:34:05.570Z,19.9
2016-12-26T08:36:05.378Z,19.9
2016-12-26T08:38:05.729Z,19.9
2016-12-26T08:40:05.317Z,19.9
2016-12-26T08:42:08.074Z,19.9
2016-12-26T08:44:07.867Z,19.9
2016-12-26T08:46:08.089Z,19.9
2016-12-26T08:48:04.898Z,19.9
2016-12-26T08:50:04.766Z,19.9
2016-12-26T08:52:13.104Z,19.9
2016-12-26T08:54:04.918Z,19.9
2016-12-26T08:56:05.069Z,19.9
2016-12-26T08:58:05.606Z,19.9
2016-12-26T09:00:07.884Z,19.9
2016-12-26T09:02:05.056Z,19.9
2016-12-26T09:04:04.784Z,19.9
2016-12-26T09:06:05.570Z,19.9
2016-12-26T09:08:05.654Z,19.9
2016-12-26T09:10:05.373Z,19.9
2016-12-26T09:12:08.037Z,19.9
2016-12-26T09:14:05.124Z,19.9
2016-12-26T09:16:04.842Z,19.9
2016-12-26T09:18:04.883Z,19.9
2016-12-26T09:20:08.481Z,19.9
2016-12-26T09:22:05.139Z,19.9
2016-12-26T09:24:05.338Z,19.9
2016-12-26T09:26:05.037Z,19.9
2016-12-26T09:28:07.846Z,19.9
2016-12-26T09:30:08.109Z,19.9
2016-12-26T09:32:05.942Z,19.9
2016-12-26T09:34:07.252Z,20
2016-12-26T09:36:05.318Z,19.9
2016-12-26T09:38:07.658Z,20
2016-12-26T09:40:05.435Z,19.9
2016-12-26T09:42:05.178Z,20
2016-12-26T09:44:04.997Z,19.9
2016-12-26T09:46:07.252Z,20
2016-12-26T09:48:05.024Z,20
2016-12-26T09:50:05.454Z,20
2016-12-26T09:52:05.127Z,20
2016-12-26T09:54:04.815Z,20
2016-12-26T09:56:10.095Z,20
2016-12-26T09:58:04.827Z,20
2016-12-26T10:00:05.608Z,20
2016-12-26T10:02:05.677Z,20
2016-12-26T10:04:04.921Z,20.1
2016-12-26T10:06:05.213Z,20.1
2016-12-26T10:08:05.076Z,20.1
2016-12-26T10:10:04.762Z,20.1
2016-12-26T10:12:05.525Z,20.1
2016-12-26T10:14:04.806Z,20.1
2016-12-26T10:16:05.922Z,20.1
2016-12-26T10:18:07.400Z,20.1
2016-12-26T10:20:05.170Z,20.1
2016-12-26T10:22:05.481Z,20.1
2016-12-26T10:24:10.317Z,20.1
2016-12-26T10:26:05.785Z,20.1
2016-12-26T10:28:05.508Z,20.1
2016-12-26T10:30:05.225Z,20.1
2016-12-26T10:32:05.586Z,20
2016-12-26T10:34:05.274Z,20.1
2016-12-26T10:36:05.526Z,20.1
2016-12-26T10:38:05.707Z,20
2016-12-26T10:40:04.650Z,20.1
2016-12-26T10:42:08.145Z,20.1
2016-12-26T10:44:09.701Z,20.1
2016-12-26T10:46:05.689Z,20.1
2016-12-26T10:48:18.465Z,20.1
2016-12-26T10:50:05.461Z,20
2016-12-26T10:52:04.722Z,20.1
2016-12-26T10:54:05.107Z,20
2016-12-26T10:56:07.970Z,20
2016-12-26T10:58:06.269Z,20
2016-12-26T11:00:05.203Z,20.1
2016-12-26T11:02:08.807Z,20
2016-12-26T11:04:20.533Z,20.1
2016-12-26T11:06:05.017Z,20
2016-12-26T11:08:04.915Z,20.1
2016-12-26T11:10:07.135Z,20
2016-12-26T11:12:04.985Z,20
2016-12-26T11:14:10.397Z,20
2016-12-26T11:16:05.245Z,20
2016-12-26T11:18:05.421Z,20
2016-12-26T11:20:05.353Z,20.1
2016-12-26T11:22:05.055Z,20
2016-12-26T11:24:04.749Z,20
2016-12-26T11:26:05.571Z,20
2016-12-26T11:28:04.817Z,20
2016-12-26T11:30:04.752Z,20
2016-12-26T11:32:09.010Z,20
2016-12-26T11:34:06.488Z,20.1
2016-12-26T11:36:05.159Z,20.1
2016-12-26T11:38:05.723Z,20
2016-12-26T11:40:05.299Z,20.1
2016-12-26T11:42:05.421Z,20.1
2016-12-26T11:44:05.719Z,20.1
2016-12-26T11:46:04.960Z,20.1
2016-12-26T11:48:04.857Z,20.1
2016-12-26T11:50:08.423Z,20.1
2016-12-26T11:52:04.839Z,20
2016-12-26T11:54:07.691Z,20.1
2016-12-26T11:56:05.483Z,20.1
2016-12-26T11:58:04.713Z,20.1
2016-12-26T12:00:05.429Z,20.1
2016-12-26T12:02:05.299Z,20.1
2016-12-26T12:04:05.677Z,20.1
2016-12-26T12:06:04.635Z,20.1
2016-12-26T12:08:05.307Z,20.1
2016-12-26T12:10:04.721Z,20.1
2016-12-26T12:12:04.645Z,20.1
2016-12-26T12:14:05.716Z,20.1
2016-12-26T12:16:05.471Z,20.1
2016-12-26T12:18:05.358Z,20.1
2016-12-26T12:20:08.337Z,20.1
2016-12-26T12:22:05.118Z,20.1
2016-12-26T12:24:07.694Z,20.1
2016-12-26T12:26:08.142Z,20.1
2016-12-26T12:28:04.902Z,20.1
2016-12-26T12:30:04.617Z,20.1
2016-12-26T12:32:05.226Z,20.1
2016-12-26T12:34:04.920Z,20.1
2016-12-26T12:36:05.159Z,20.1
2016-12-26T12:38:07.542Z,20.1
2016-12-26T12:40:05.633Z,20.1
2016-12-26T12:42:05.334Z,20.1
2016-12-26T12:44:07.571Z,20.1
2016-12-26T12:46:07.816Z,20.1
2016-12-26T12:48:05.474Z,20.1
2016-12-26T12:50:05.199Z,20.1
2016-12-26T12:52:04.918Z,20.1
2016-12-26T12:54:04.731Z,20.1
2016-12-26T12:56:08.351Z,20.1
2016-12-26T12:58:05.109Z,20.1
2016-12-26T13:00:04.851Z,20.1
2016-12-26T13:02:08.169Z,20.1
2016-12-26T13:04:04.876Z,20.1
2016-12-26T13:06:05.113Z,20.1
2016-12-26T13:08:05.607Z,20.1
2016-12-26T13:10:04.856Z,20.1
2016-12-26T13:12:05.585Z,20.1
2016-12-26T13:14:05.629Z,20.1
2016-12-26T13:16:05.343Z,20.1
2016-12-26T13:18:04.903Z,20.1
2016-12-26T13:20:05.782Z,20.2
2016-12-26T13:22:05.019Z,20.1
2016-12-26T13:24:04.761Z,20.1
2016-12-26T13:26:05.137Z,20.2
2016-12-26T13:28:05.137Z,20.2
2016-12-26T13:30:05.115Z,20.2
2016-12-26T13:32:04.995Z,20.1
2016-12-26T13:34:04.695Z,20.1
2016-12-26T13:36:05.377Z,20.1
2016-12-26T13:38:05.463Z,20.1
2016-12-26T13:40:04.806Z,20.2
2016-12-26T13:42:05.638Z,20.2
2016-12-26T13:44:08.329Z,20.2
2016-12-26T13:46:10.144Z,20.1
2016-12-26T13:48:04.869Z,20.1
2016-12-26T13:50:05.601Z,20.2
2016-12-26T13:52:05.364Z,20.1
2016-12-26T13:54:05.065Z,20.1
2016-12-26T13:56:05.322Z,20.1
2016-12-26T13:58:04.987Z,20.1
2016-12-26T14:00:04.904Z,20.1
2016-12-26T14:02:07.503Z,20.1
2016-12-26T14:04:05.218Z,20.1
2016-12-26T14:06:04.975Z,20.1
2016-12-26T14:08:07.374Z,20.1
2016-12-26T14:10:05.135Z,20.1
2016-12-26T14:12:05.002Z,20.1
2016-12-26T14:14:05.634Z,20.1
2016-12-26T14:16:05.787Z,20.1
2016-12-26T14:18:04.715Z,20.2
2016-12-26T14:20:05.561Z,20.1
2016-12-26T14:22:05.321Z,20.1
2016-12-26T14:24:05.151Z,20.2
2016-12-26T14:26:04.915Z,20.1
2016-12-26T14:28:05.135Z,20.1
2016-12-26T14:30:07.435Z,20.1
2016-12-26T14:32:05.303Z,20.1
2016-12-26T14:34:04.975Z,20.1
2016-12-26T14:36:07.729Z,20.1
2016-12-26T14:38:05.542Z,20.1
2016-12-26T14:40:05.232Z,20.1
2016-12-26T14:42:07.474Z,20.1
2016-12-26T14:44:07.939Z,20.1
2016-12-26T14:46:09.750Z,20.1
2016-12-26T14:48:06.220Z,20.1
2016-12-26T14:50:07.594Z,20.1
2016-12-26T14:52:12.893Z,20.1
2016-12-26T14:54:04.645Z,20.1
2016-12-26T14:56:10.407Z,20.1
2016-12-26T14:58:05.158Z,20.1
2016-12-26T15:00:04.831Z,20.1
2016-12-26T15:02:05.931Z,20.1
2016-12-26T15:04:04.781Z,20.1
2016-12-26T15:06:05.468Z,20.1
2016-12-26T15:08:04.779Z,20.1
2016-12-26T15:10:08.039Z,20.1
2016-12-26T15:12:04.812Z,20.1
2016-12-26T15:14:12.368Z,20.1
2016-12-26T15:16:05.072Z,20.1
2016-12-26T15:18:05.010Z,20.1
2016-12-26T15:20:05.008Z,20.1
2016-12-26T15:22:05.277Z,20.1
2016-12-26T15:24:05.029Z,20.1
2016-12-26T15:26:04.822Z,20.1
2016-12-26T15:28:05.523Z,20.1
2016-12-26T15:30:05.339Z,20
2016-12-26T15:32:05.828Z,20.1
2016-12-26T15:34:05.549Z,20.1
2016-12-26T15:36:05.260Z,20.1
2016-12-26T15:38:04.978Z,20.1
2016-12-26T15:40:04.717Z,20.1
2016-12-26T15:42:08.008Z,20.1
2016-12-26T15:44:04.763Z,20.1
2016-12-26T15:46:06.483Z,20.1
2016-12-26T15:48:07.779Z,20.2
2016-12-26T15:50:05.866Z,20.1
2016-12-26T15:52:05.763Z,20.1
2016-12-26T15:54:05.470Z,20.1
2016-12-26T15:56:05.265Z,20.2
2016-12-26T15:58:04.996Z,20.1
2016-12-26T16:00:04.663Z,20.2
2016-12-26T16:02:04.936Z,20.2
2016-12-26T16:04:04.632Z,20.1
2016-12-26T16:06:04.887Z,20.1
2016-12-26T16:08:05.028Z,20.1
2016-12-26T16:10:04.803Z,20.1
2016-12-26T16:12:10.107Z,20.1
2016-12-26T16:14:05.161Z,20
2016-12-26T16:16:05.432Z,20
2016-12-26T16:18:04.950Z,20
2016-12-26T16:20:05.260Z,20
2016-12-26T16:22:05.021Z,20
2016-12-26T16:24:10.114Z,20
2016-12-26T16:26:04.962Z,20
2016-12-26T16:28:04.660Z,20
2016-12-26T16:30:05.377Z,20
2016-12-26T16:32:05.371Z,20
2016-12-26T16:34:05.069Z,20
2016-12-26T16:36:04.762Z,20
2016-12-26T16:38:08.410Z,20
2016-12-26T16:40:05.136Z,20
2016-12-26T16:42:04.825Z,20
2016-12-26T16:44:05.376Z,20
2016-12-26T16:46:05.061Z,20
2016-12-26T16:48:07.890Z,20
2016-12-26T16:50:05.122Z,20
2016-12-26T16:52:04.879Z,20
2016-12-26T16:54:05.598Z,20
2016-12-26T16:56:05.033Z,20
2016-12-26T16:58:07.258Z,19.9
2016-12-26T17:00:10.094Z,20
2016-12-26T17:02:04.880Z,20
2016-12-26T17:04:05.564Z,20
2016-12-26T17:06:12.832Z,19.9
2016-12-26T17:08:05.848Z,20
2016-12-26T17:10:05.570Z,20
2016-12-26T17:12:05.388Z,20
2016-12-26T17:14:05.284Z,20
2016-12-26T17:16:05.048Z,19.9
2016-12-26T17:18:04.978Z,20
2016-12-26T17:20:04.744Z,20
2016-12-26T17:22:07.571Z,20
2016-12-26T17:24:05.251Z,20
2016-12-26T17:26:07.490Z,20
2016-12-26T17:28:10.428Z,19.9
2016-12-26T17:30:05.122Z,20
2016-12-26T17:32:05.015Z,20
2016-12-26T17:34:04.747Z,19.9
2016-12-26T17:36:05.495Z,19.9
2016-12-26T17:38:05.217Z,20
2016-12-26T17:40:04.980Z,20
2016-12-26T17:42:05.192Z,20
2016-12-26T17:44:07.983Z,20
2016-12-26T17:46:07.330Z,20
2016-12-26T17:48:05.088Z,20
2016-12-26T17:50:05.642Z,20
2016-12-26T17:52:05.306Z,19.9
2016-12-26T17:54:05.532Z,20
2016-12-26T17:56:04.930Z,19.9
2016-12-26T17:58:05.607Z,20
2016-12-26T18:00:07.990Z,20
2016-12-26T18:02:07.339Z,20
2016-12-26T18:04:05.026Z,20
2016-12-26T18:06:04.720Z,20
2016-12-26T18:08:05.805Z,20
2016-12-26T18:10:05.546Z,20
2016-12-26T18:12:05.284Z,20
2016-12-26T18:14:05.369Z,20.1
2016-12-26T18:16:05.194Z,20.1
2016-12-26T18:18:05.370Z,20.1
2016-12-26T18:20:05.459Z,20.1
2016-12-26T18:22:07.777Z,20.1
2016-12-26T18:24:05.511Z,20.2
2016-12-26T18:26:15.313Z,20.2
2016-12-26T18:28:05.217Z,20.2
2016-12-26T18:30:07.987Z,20.3
2016-12-26T18:32:05.063Z,20.3
2016-12-26T18:34:04.797Z,20.3
2016-12-26T18:36:05.567Z,20.4
2016-12-26T18:38:05.560Z,20.4
2016-12-26T18:40:05.258Z,20.5
2016-12-26T18:42:05.497Z,20.5
2016-12-26T18:44:07.985Z,20.5
2016-12-26T18:46:04.645Z,20.5
2016-12-26T18:48:05.432Z,20.6
2016-12-26T18:50:05.601Z,20.6
2016-12-26T18:52:04.898Z,20.6
2016-12-26T18:54:10.730Z,20.7
2016-12-26T18:56:05.759Z,20.7
2016-12-26T18:58:05.509Z,20.8
2016-12-26T19:00:05.231Z,20.8
2016-12-26T19:02:05.319Z,20.8
2016-12-26T19:04:10.098Z,20.8
2016-12-26T19:06:07.351Z,20.8
2016-12-26T19:08:04.806Z,20.8
2016-12-26T19:10:05.095Z,20.8
2016-12-26T19:12:13.044Z,20.8
2016-12-26T19:14:07.983Z,20.8
2016-12-26T19:16:04.757Z,20.8
2016-12-26T19:18:07.308Z,20.8
2016-12-26T19:20:07.692Z,20.8
2016-12-26T19:22:07.885Z,20.8
2016-12-26T19:24:05.620Z,20.8
2016-12-26T19:26:05.755Z,20.8
2016-12-26T19:28:05.425Z,20.8
2016-12-26T19:30:05.412Z,20.8
2016-12-26T19:32:05.605Z,20.8
2016-12-26T19:34:05.364Z,20.8
2016-12-26T19:36:05.303Z,20.8
2016-12-26T19:38:05.465Z,20.8
2016-12-26T19:40:05.196Z,20.8
2016-12-26T19:42:04.964Z,20.8
2016-12-26T19:44:04.813Z,20.8
2016-12-26T19:46:05.584Z,20.8
2016-12-26T19:48:07.468Z,20.8
2016-12-26T19:50:07.974Z,20.8
2016-12-26T19:52:05.353Z,20.8
2016-12-26T19:54:05.084Z,20.8
2016-12-26T19:56:05.493Z,20.8
2016-12-26T19:58:05.282Z,20.8
2016-12-26T20:00:07.741Z,20.8
2016-12-26T20:02:05.344Z,20.8
2016-12-26T20:04:05.217Z,20.8
2016-12-26T20:06:05.219Z,20.8
2016-12-26T20:08:08.001Z,20.8
2016-12-26T20:10:04.724Z,20.8
2016-12-26T20:12:10.535Z,20.8
2016-12-26T20:14:05.521Z,20.8
2016-12-26T20:16:05.399Z,20.8
2016-12-26T20:18:06.324Z,20.9
2016-12-26T20:20:05.213Z,20.8
2016-12-26T20:22:05.019Z,20.9
2016-12-26T20:24:04.951Z,20.8
2016-12-26T20:26:07.777Z,20.8
2016-12-26T20:28:07.590Z,20.9
2016-12-26T20:30:07.365Z,20.9
2016-12-26T20:32:10.449Z,20.9
2016-12-26T20:34:05.257Z,20.9
2016-12-26T20:36:07.624Z,20.9
2016-12-26T20:38:10.383Z,20.9
2016-12-26T20:40:05.323Z,20.9
2016-12-26T20:42:05.629Z,20.9
2016-12-26T20:44:05.678Z,20.9
2016-12-26T20:46:04.986Z,20.9
2016-12-26T20:48:05.229Z,20.9
2016-12-26T20:50:05.486Z,20.9
2016-12-26T20:52:05.200Z,20.9
2016-12-26T20:54:05.015Z,20.9
2016-12-26T20:56:05.113Z,20.9
2016-12-26T20:58:04.832Z,20.9
2016-12-26T21:00:10.557Z,20.9
2016-12-26T21:02:05.678Z,20.9
2016-12-26T21:04:04.983Z,20.9
2016-12-26T21:06:05.221Z,20.9
2016-12-26T21:08:07.787Z,20.9
2016-12-26T21:10:05.446Z,20.9
2016-12-26T21:12:05.267Z,20.9
2016-12-26T21:14:05.221Z,20.9
2016-12-26T21:16:04.950Z,20.9
2016-12-26T21:18:05.456Z,20.9
2016-12-26T21:20:08.128Z,20.9
2016-12-26T21:22:04.888Z,20.9
2016-12-26T21:24:04.773Z,20.9
2016-12-26T21:26:10.943Z,20.9
2016-12-26T21:28:09.950Z,20.9
2016-12-26T21:30:04.628Z,20.9
2016-12-26T21:32:05.643Z,20.8
2016-12-26T21:34:05.314Z,20.8
2016-12-26T21:36:05.031Z,20.8
2016-12-26T21:38:05.087Z,20.8
2016-12-26T21:40:04.777Z,20.8
2016-12-26T21:42:05.562Z,20.8
2016-12-26T21:44:05.489Z,20.8
2016-12-26T21:46:05.228Z,20.8
2016-12-26T21:48:04.928Z,20.8
2016-12-26T21:50:05.232Z,20.8
2016-12-26T21:52:05.026Z,20.8
2016-12-26T21:54:04.822Z,20.8
2016-12-26T21:56:10.664Z,20.8
2016-12-26T21:58:05.645Z,20.8
2016-12-26T22:00:05.389Z,20.8
2016-12-26T22:02:05.512Z,20.7
2016-12-26T22:04:04.809Z,20.8
2016-12-26T22:06:04.889Z,20.8
2016-12-26T22:08:05.027Z,20.8
2016-12-26T22:10:04.792Z,20.8
2016-12-26T22:12:05.615Z,20.8
2016-12-26T22:14:05.630Z,20.7
2016-12-26T22:16:05.081Z,20.7
2016-12-26T22:18:04.978Z,20.7
2016-12-26T22:20:04.783Z,20.8
2016-12-26T22:22:08.064Z,20.7
2016-12-26T22:24:04.843Z,20.7
2016-12-26T22:26:05.754Z,20.7
2016-12-26T22:28:05.473Z,20.8
2016-12-26T22:30:05.305Z,20.7
2016-12-26T22:32:10.212Z,20.7
2016-12-26T22:34:05.448Z,20.8
2016-12-26T22:36:05.124Z,20.8
2016-12-26T22:38:04.899Z,20.7
2016-12-26T22:40:05.585Z,20.8
2016-12-26T22:42:05.296Z,20.8
2016-12-26T22:44:07.704Z,20.8
2016-12-26T22:46:05.406Z,20.8
2016-12-26T22:48:05.333Z,20.7
2016-12-26T22:50:05.384Z,20.8
2016-12-26T22:52:05.079Z,20.7
2016-12-26T22:54:07.301Z,20.8
2016-12-26T22:56:05.151Z,20.8
2016-12-26T22:58:07.354Z,20.8
2016-12-26T23:00:05.067Z,20.8
2016-12-26T23:02:12.908Z,20.8
2016-12-26T23:04:05.778Z,20.8
2016-12-26T23:06:05.532Z,20.8
2016-12-26T23:08:05.263Z,20.8
2016-12-26T23:10:05.029Z,20.8
2016-12-26T23:12:04.839Z,20.8
2016-12-26T23:14:05.651Z,20.8
2016-12-26T23:16:05.312Z,20.8
2016-12-26T23:18:05.206Z,20.8
2016-12-26T23:20:05.296Z,20.8
2016-12-26T23:22:04.973Z,20.8
2016-12-26T23:24:05.203Z,20.8
2016-12-26T23:26:05.067Z,20.8
2016-12-26T23:28:05.302Z,20.8
2016-12-26T23:30:05.033Z,20.8
2016-12-26T23:32:04.777Z,20.8
2016-12-26T23:34:05.498Z,20.8
2016-12-26T23:36:07.755Z,20.9
2016-12-26T23:38:05.669Z,20.8
2016-12-26T23:40:04.906Z,20.8
2016-12-26T23:42:07.727Z,20.8
2016-12-26T23:44:05.460Z,20.8
2016-12-26T23:46:04.699Z,20.8
2016-12-26T23:48:05.399Z,20.8
2016-12-26T23:50:05.120Z,20.8
2016-12-26T23:52:12.933Z,20.9
2016-12-26T23:54:04.664Z,20.8
2016-12-26T23:56:05.450Z,20.8
2016-12-26T23:58:04.909Z,20.8
